Cruz Calle, Texas
Current Conditions -  °F | °C
As of 11:35 AM on Thursday 23 Oct 2014 (Local Time) from KHBV Reporting Station
Broken Clouds Broken Clouds  
Wind Chill: 74°   Ceiling: 9500
Heat Index: 74°   Visibility: 10mi
Dew Point: 63°   Wind: 6mph
Humidity: 68%   Direction: 60°ENE
Pressure: 30.15"   Gusts: NA
Location:  27.5358°N, 98.3937°W
Report Text: KHBV 231635Z AUTO 06005KT 10SM BKN095 BKN120 23/17 A3015 RMK AO2 T02320170 PWINO
Loading
Personal Weather Stations






























Interactive Weather Map
Tropical Storm Tracking
New forecast layout! Learn more

10-Day Weather Forecast

Advertisements
Track Severe Weather on mobile